Time;durP1;ratioP1;P1;durP2;ratioP2;P2;SDS_P1;SDS_P2;PMS_P1;PMS_P2;Temp;Humidity;BMP_temperature;BMP_pressure;BME280_temperature;BME280_humidity;BME280_pressure;Samples;Min_cycle;Max_cycle;Signal;HPM_P1;HPM_P2
2021/10/03 00:01:01;;;;;;;5.10;4.63;;;15.10;99.90;;;;;;6242540;22;20773;-90
2021/10/03 00:03:27;;;;;;;5.07;4.20;;;14.90;99.90;;;;;;6243018;22;20404;-90
2021/10/03 00:05:55;;;;;;;4.50;4.10;;;14.80;99.90;;;;;;6241688;22;20420;-90
2021/10/03 00:08:28;;;;;;;5.30;4.73;;;14.70;99.90;;;;;;6242638;22;20441;-90
2021/10/03 00:10:54;;;;;;;5.13;4.73;;;14.50;99.90;;;;;;6238079;22;20420;-90
2021/10/03 00:13:22;;;;;;;4.63;4.30;;;14.40;99.90;;;;;;6242856;22;20763;-90
2021/10/03 00:16:08;;;;;;;6.87;4.47;;;14.30;99.90;;;;;;6241947;22;20408;-90
2021/10/03 00:18:44;;;;;;;4.53;4.13;;;14.30;99.90;;;;;;6264297;22;20397;-90
2021/10/03 00:21:10;;;;;;;4.93;4.43;;;14.20;99.90;;;;;;6242420;22;20488;-89
2021/10/03 00:23:44;;;;;;;4.60;4.20;;;14.30;99.90;;;;;;6270449;22;20420;-90
2021/10/03 00:26:09;;;;;;;5.50;4.00;;;14.20;99.90;;;;;;6242146;22;20395;-90
2021/10/03 00:28:41;;;;;;;6.13;4.67;;;14.20;99.90;;;;;;6242297;22;20265;-90
2021/10/03 00:31:07;;;;;;;4.63;4.23;;;14.20;99.90;;;;;;6243281;22;20158;-90
2021/10/03 00:33:48;;;;;;;4.40;4.03;;;14.20;99.90;;;;;;6270885;22;20397;-90
2021/10/03 00:36:13;;;;;;;4.47;4.07;;;14.40;99.90;;;;;;6249491;22;20396;-90
2021/10/03 00:38:39;;;;;;;5.10;4.60;;;14.70;99.90;;;;;;6243129;22;20393;-90
2021/10/03 00:41:05;;;;;;;4.63;4.23;;;14.80;99.90;;;;;;6243108;22;20172;-90
2021/10/03 00:43:31;;;;;;;4.30;3.90;;;14.70;99.90;;;;;;6242443;22;20240;-90
2021/10/03 00:45:57;;;;;;;4.90;4.40;;;14.70;99.90;;;;;;6242226;22;20154;-90
2021/10/03 00:48:22;;;;;;;4.30;3.90;;;14.50;99.90;;;;;;6242889;22;20288;-90
2021/10/03 00:50:54;;;;;;;4.40;4.00;;;14.30;99.90;;;;;;6242895;22;20154;-90
2021/10/03 00:53:20;;;;;;;4.67;4.00;;;14.10;99.90;;;;;;6243743;22;20166;-90
2021/10/03 00:55:46;;;;;;;4.77;4.23;;;14.00;99.90;;;;;;6242081;22;20397;-90
2021/10/03 00:58:12;;;;;;;6.20;4.53;;;13.90;99.90;;;;;;6242507;22;20691;-90
2021/10/03 01:00:40;;;;;;;4.90;4.40;;;13.90;99.90;;;;;;6241888;22;20621;-89
2021/10/03 01:03:08;;;;;;;4.13;3.70;;;13.90;99.90;;;;;;6242574;22;20420;-90
2021/10/03 01:05:41;;;;;;;4.07;3.73;;;14.00;99.90;;;;;;6241691;22;20397;-90
2021/10/03 01:08:07;;;;;;;5.10;4.20;;;14.00;99.90;;;;;;6243437;22;20424;-90
2021/10/03 01:10:34;;;;;;;4.20;3.80;;;14.00;99.90;;;;;;6242795;22;20401;-90
2021/10/03 01:13:08;;;;;;;4.77;4.27;;;14.00;99.90;;;;;;6241935;22;20404;-90
2021/10/03 01:15:37;;;;;;;4.47;4.07;;;14.10;99.90;;;;;;6242789;22;20389;-91
2021/10/03 01:18:04;;;;;;;4.90;4.50;;;14.10;99.90;;;;;;6240999;22;20377;-90
2021/10/03 01:20:31;;;;;;;4.20;3.90;;;14.00;99.90;;;;;;6242540;22;20470;-90
2021/10/03 01:23:03;;;;;;;4.27;3.87;;;14.00;99.90;;;;;;6242636;22;20383;-90
2021/10/03 01:25:33;;;;;;;4.60;4.17;;;14.10;99.90;;;;;;6241809;22;20726;-90
2021/10/03 01:28:00;;;;;;;4.67;4.27;;;14.10;99.90;;;;;;6242525;22;20515;-90
2021/10/03 01:30:26;;;;;;;4.27;3.70;;;14.00;99.90;;;;;;6268169;22;20401;-90
2021/10/03 01:32:52;;;;;;;5.40;4.40;;;14.00;99.90;;;;;;6243989;22;20385;-90
2021/10/03 01:35:19;;;;;;;4.00;3.70;;;14.10;99.90;;;;;;6243691;22;20393;-90
2021/10/03 01:37:45;;;;;;;4.23;3.83;;;14.20;99.90;;;;;;6245050;22;20716;-90
2021/10/03 01:40:12;;;;;;;4.90;3.80;;;14.20;99.90;;;;;;6244263;22;20389;-90
2021/10/03 01:42:39;;;;;;;3.97;3.67;;;14.20;99.90;;;;;;6271212;22;20764;-90
2021/10/03 01:45:08;;;;;;;4.80;4.27;;;14.20;99.90;;;;;;6271131;22;20750;-90
2021/10/03 01:47:33;;;;;;;4.17;3.83;;;14.20;99.90;;;;;;6244832;22;20421;-90
2021/10/03 01:49:59;;;;;;;4.70;4.30;;;14.10;99.90;;;;;;6271203;22;20877;-90
2021/10/03 01:52:25;;;;;;;4.20;3.80;;;14.20;99.90;;;;;;6244154;22;20421;-90
2021/10/03 01:54:51;;;;;;;4.50;4.10;;;14.30;99.90;;;;;;6244748;22;20245;-90
2021/10/03 01:57:16;;;;;;;5.17;4.73;;;14.40;99.90;;;;;;6244426;22;20615;-89
2021/10/03 01:59:48;;;;;;;4.70;3.90;;;14.30;99.90;;;;;;6245250;22;20192;-90
2021/10/03 02:02:13;;;;;;;6.87;4.20;;;14.30;99.90;;;;;;6244088;22;20245;-90
2021/10/03 02:04:41;;;;;;;4.47;4.17;;;14.30;99.90;;;;;;6246174;22;20424;-89
2021/10/03 02:07:07;;;;;;;4.90;4.50;;;14.20;99.90;;;;;;6247725;22;20217;-90
2021/10/03 02:09:32;;;;;;;5.73;3.77;;;14.20;99.90;;;;;;6244050;22;20504;-90
2021/10/03 02:12:00;;;;;;;4.40;3.77;;;14.30;99.90;;;;;;6243994;22;20216;-90
2021/10/03 02:14:45;;;;;;;4.67;4.23;;;14.20;99.90;;;;;;6243982;22;20674;-90
2021/10/03 02:17:11;;;;;;;4.40;4.10;;;14.30;99.90;;;;;;6244389;22;20407;-89
2021/10/03 02:19:40;;;;;;;4.63;4.23;;;14.30;99.90;;;;;;6243709;22;20893;-90
2021/10/03 02:22:08;;;;;;;5.80;5.20;;;14.40;99.90;;;;;;6244532;22;20163;-90
2021/10/03 02:24:35;;;;;;;4.60;4.20;;;14.40;99.90;;;;;;6244332;22;20444;-91
2021/10/03 02:27:01;;;;;;;4.60;4.20;;;14.30;99.90;;;;;;6243236;22;20389;-91
2021/10/03 02:29:27;;;;;;;4.70;4.20;;;14.30;99.90;;;;;;6243980;22;20804;-90
2021/10/03 02:31:54;;;;;;;4.63;4.30;;;14.10;99.90;;;;;;6244405;22;20774;-90
2021/10/03 02:34:21;;;;;;;4.73;4.20;;;14.10;99.90;;;;;;6243698;22;20393;-90
2021/10/03 02:36:47;;;;;;;4.40;4.00;;;14.10;99.90;;;;;;6243613;22;20400;-90
2021/10/03 02:39:13;;;;;;;4.83;4.20;;;14.10;99.90;;;;;;6244024;22;20883;-91
2021/10/03 02:41:39;;;;;;;4.07;3.77;;;14.10;99.90;;;;;;6244199;22;20416;-90
2021/10/03 02:44:05;;;;;;;4.70;4.13;;;14.10;99.90;;;;;;6243247;22;20396;-90
2021/10/03 02:46:32;;;;;;;4.23;3.87;;;14.10;99.90;;;;;;6244091;22;20212;-90
2021/10/03 02:48:58;;;;;;;4.50;4.10;;;14.00;99.90;;;;;;6243937;22;20433;-90
2021/10/03 02:51:26;;;;;;;5.17;4.77;;;14.00;99.90;;;;;;6243856;22;20501;-90
2021/10/03 02:53:54;;;;;;;4.37;3.97;;;14.00;99.90;;;;;;6239196;22;21155;-90
2021/10/03 02:56:22;;;;;;;5.57;4.03;;;13.90;99.90;;;;;;6240820;22;20401;-90
2021/10/03 02:58:48;;;;;;;5.10;4.60;;;14.00;99.90;;;;;;6243477;22;20441;-90
2021/10/03 03:01:14;;;;;;;4.80;4.40;;;13.80;99.90;;;;;;6242137;22;20872;-90
2021/10/03 03:03:43;;;;;;;4.27;3.87;;;13.80;99.90;;;;;;6243592;22;20771;-90
2021/10/03 03:06:09;;;;;;;5.10;4.60;;;13.70;99.90;;;;;;6241867;22;20428;-90
2021/10/03 03:08:35;;;;;;;4.83;4.43;;;13.70;99.90;;;;;;6243014;22;20501;-89
2021/10/03 03:11:03;;;;;;;4.50;4.10;;;13.60;99.90;;;;;;6242641;22;20421;-90
2021/10/03 03:13:29;;;;;;;5.30;4.90;;;13.50;99.90;;;;;;6242007;22;20174;-90
2021/10/03 03:15:55;;;;;;;4.90;4.50;;;13.50;99.90;;;;;;6242235;22;20875;-90
2021/10/03 03:18:21;;;;;;;5.30;4.80;;;13.50;99.90;;;;;;6242679;22;20388;-90
2021/10/03 03:20:47;;;;;;;4.77;4.37;;;13.60;99.90;;;;;;6242675;22;20476;-90
2021/10/03 03:23:20;;;;;;;14.60;11.70;;;13.50;99.90;;;;;;6243136;22;20557;-90
2021/10/03 03:25:46;;;;;;;6.40;5.40;;;13.50;99.90;;;;;;6242686;22;20392;-90
2021/10/03 03:28:12;;;;;;;5.03;4.50;;;13.50;99.90;;;;;;6243091;22;20513;-90
2021/10/03 03:30:37;;;;;;;6.00;5.40;;;13.50;99.90;;;;;;6243835;22;20166;-90
2021/10/03 03:33:04;;;;;;;6.80;5.40;;;13.50;99.90;;;;;;6244284;22;20655;-90
2021/10/03 03:35:30;;;;;;;5.93;5.33;;;13.40;99.90;;;;;;6248534;22;20166;-91
2021/10/03 03:37:56;;;;;;;4.90;4.43;;;13.30;99.90;;;;;;6247830;22;20438;-90
2021/10/03 03:40:21;;;;;;;5.53;5.03;;;13.40;99.90;;;;;;6243721;22;20170;-90
2021/10/03 03:42:48;;;;;;;5.87;4.60;;;13.40;99.90;;;;;;6243376;22;20454;-90
2021/10/03 03:45:14;;;;;;;4.77;4.37;;;13.40;99.90;;;;;;6243423;22;20601;-90
2021/10/03 03:47:40;;;;;;;4.90;4.50;;;13.30;99.90;;;;;;6242924;22;20420;-90
2021/10/03 03:50:09;;;;;;;5.07;4.67;;;13.40;99.90;;;;;;6244055;22;20408;-89
2021/10/03 03:52:35;;;;;;;5.40;4.90;;;13.40;99.90;;;;;;6242898;22;20162;-90
2021/10/03 03:55:01;;;;;;;5.33;4.57;;;13.40;99.90;;;;;;6242820;22;20393;-90
2021/10/03 03:57:26;;;;;;;4.43;4.03;;;13.30;99.90;;;;;;6243474;22;20157;-90
2021/10/03 03:59:52;;;;;;;4.03;3.73;;;13.40;99.90;;;;;;6243217;22;20182;-90
2021/10/03 04:02:18;;;;;;;4.53;4.13;;;13.40;99.90;;;;;;6241052;22;20162;-90
2021/10/03 04:04:44;;;;;;;5.23;4.83;;;13.40;99.90;;;;;;6240903;22;20750;-90
2021/10/03 04:07:10;;;;;;;5.03;4.63;;;13.40;99.90;;;;;;6242829;22;20166;-90
2021/10/03 04:09:38;;;;;;;5.60;4.97;;;13.40;99.90;;;;;;6242236;22;20954;-90
2021/10/03 04:12:07;;;;;;;7.30;6.60;;;13.40;99.90;;;;;;6242762;22;20249;-89
2021/10/03 04:14:33;;;;;;;15.10;13.70;;;13.50;99.90;;;;;;6242347;22;20463;-90
2021/10/03 04:16:58;;;;;;;6.87;6.27;;;13.40;99.90;;;;;;6241427;22;20193;-89
2021/10/03 04:19:24;;;;;;;7.20;6.60;;;13.30;99.90;;;;;;6242567;22;20536;-90
2021/10/03 04:21:50;;;;;;;7.20;5.80;;;13.30;99.90;;;;;;6242137;22;20162;-90
2021/10/03 04:24:15;;;;;;;6.43;5.13;;;13.30;99.90;;;;;;6242587;22;20192;-90
2021/10/03 04:26:41;;;;;;;5.17;4.77;;;13.30;99.90;;;;;;6242819;22;20170;-90
2021/10/03 04:29:07;;;;;;;5.20;4.70;;;13.20;99.90;;;;;;6241740;22;20520;-90
2021/10/03 04:31:32;;;;;;;5.07;4.47;;;13.10;99.90;;;;;;6242292;22;20246;-90
2021/10/03 04:33:58;;;;;;;5.23;4.73;;;13.10;99.90;;;;;;6268429;22;20170;-89
2021/10/03 04:36:24;;;;;;;4.90;4.40;;;13.20;99.90;;;;;;6242319;22;20158;-90
2021/10/03 04:38:50;;;;;;;4.83;4.43;;;13.10;99.90;;;;;;6243016;22;20223;-90
2021/10/03 04:41:16;;;;;;;5.10;4.60;;;13.00;99.90;;;;;;6217985;22;20154;-90
2021/10/03 04:43:44;;;;;;;7.03;4.73;;;13.00;99.90;;;;;;6242888;22;20169;-90
2021/10/03 04:46:13;;;;;;;4.60;4.10;;;13.10;99.90;;;;;;6242540;22;20468;-90
2021/10/03 04:48:39;;;;;;;4.27;3.87;;;13.10;99.90;;;;;;6243036;22;20437;-90
2021/10/03 04:51:04;;;;;;;4.50;4.20;;;13.00;99.90;;;;;;6243188;22;20502;-91
2021/10/03 04:53:30;;;;;;;3.93;3.63;;;12.90;99.90;;;;;;6242696;22;20169;-90
2021/10/03 04:55:56;;;;;;;4.00;3.70;;;13.00;99.90;;;;;;6239951;22;20162;-90
2021/10/03 04:58:22;;;;;;;4.50;4.00;;;13.00;99.90;;;;;;6242117;22;20538;-90
2021/10/03 05:00:48;;;;;;;4.10;3.80;;;13.00;99.90;;;;;;6240758;22;20413;-90
2021/10/03 05:03:14;;;;;;;4.67;3.97;;;13.00;99.90;;;;;;6242594;22;20158;-90
2021/10/03 05:05:40;;;;;;;3.73;3.43;;;13.00;99.90;;;;;;6249323;22;20189;-91
2021/10/03 05:08:06;;;;;;;4.70;3.90;;;13.00;99.90;;;;;;6244937;22;20429;-90
2021/10/03 05:10:32;;;;;;;5.30;4.70;;;13.00;99.90;;;;;;6241579;22;20487;-90
2021/10/03 05:12:57;;;;;;;4.27;3.97;;;13.10;99.90;;;;;;6242740;22;20622;-90
2021/10/03 05:15:23;;;;;;;4.77;4.37;;;13.10;99.90;;;;;;6241781;22;20500;-90
2021/10/03 05:17:54;;;;;;;6.03;5.23;;;13.10;99.90;;;;;;6241615;22;20158;-90
2021/10/03 05:20:20;;;;;;;4.33;4.00;;;13.10;99.90;;;;;;6242800;22;20219;-88
2021/10/03 05:22:46;;;;;;;4.67;4.27;;;13.10;99.90;;;;;;6242242;22;20421;-90
2021/10/03 05:25:19;;;;;;;5.07;4.20;;;13.10;99.90;;;;;;6241307;22;20170;-90
2021/10/03 05:27:44;;;;;;;4.13;3.80;;;13.20;99.90;;;;;;6242034;22;20181;-90
2021/10/03 05:30:10;;;;;;;3.60;3.30;;;13.30;99.90;;;;;;6241550;22;20408;-90
2021/10/03 05:32:36;;;;;;;3.80;3.50;;;13.30;99.90;;;;;;6242280;22;20180;-91
2021/10/03 05:35:03;;;;;;;4.50;4.10;;;13.30;99.90;;;;;;6242242;22;20397;-90
2021/10/03 05:37:29;;;;;;;4.50;4.10;;;13.40;99.90;;;;;;6242617;22;20415;-90
2021/10/03 05:39:55;;;;;;;4.50;4.20;;;13.40;99.90;;;;;;6242095;22;20879;-89
2021/10/03 05:42:21;;;;;;;4.13;3.83;;;13.50;99.90;;;;;;6242615;22;20207;-89
2021/10/03 05:44:47;;;;;;;6.83;4.10;;;13.60;99.90;;;;;;6242425;22;20397;-90
2021/10/03 05:47:13;;;;;;;4.90;4.50;;;13.60;99.90;;;;;;6243059;22;20992;-90
2021/10/03 05:49:38;;;;;;;4.80;4.30;;;13.60;99.90;;;;;;6242726;22;20655;-90
2021/10/03 05:52:04;;;;;;;5.07;4.67;;;13.50;99.90;;;;;;6242194;22;20245;-90
2021/10/03 05:54:30;;;;;;;5.03;4.63;;;13.60;99.90;;;;;;6242517;22;20400;-90
2021/10/03 05:56:56;;;;;;;5.70;5.20;;;13.60;99.90;;;;;;6242393;22;20162;-91
2021/10/03 05:59:21;;;;;;;6.20;5.70;;;13.70;99.90;;;;;;6269801;22;20228;-90
2021/10/03 06:01:47;;;;;;;5.50;5.00;;;13.80;99.90;;;;;;6242310;22;20158;-89
2021/10/03 06:04:12;;;;;;;5.80;5.30;;;13.80;99.90;;;;;;6216867;22;20230;-90
2021/10/03 06:06:38;;;;;;;8.03;5.30;;;13.90;99.90;;;;;;6242241;22;20627;-90
2021/10/03 06:09:04;;;;;;;4.77;4.37;;;14.00;99.90;;;;;;6241789;22;20201;-90
2021/10/03 06:11:29;;;;;;;4.20;3.80;;;14.00;99.90;;;;;;6242594;22;20158;-90
2021/10/03 06:13:57;;;;;;;4.70;4.30;;;14.20;99.90;;;;;;6241418;22;20154;-90
2021/10/03 06:16:23;;;;;;;4.87;4.47;;;14.30;99.90;;;;;;6242172;22;20158;-90
2021/10/03 06:18:48;;;;;;;4.30;3.90;;;14.60;99.90;;;;;;6243562;22;20392;-90
2021/10/03 06:21:15;;;;;;;5.30;4.80;;;14.90;99.90;;;;;;6243884;22;20242;-90
2021/10/03 06:23:44;;;;;;;5.00;4.10;;;15.20;99.90;;;;;;6243873;22;20166;-90
2021/10/03 06:26:11;;;;;;;5.60;4.00;;;15.50;99.90;;;;;;6270815;22;20761;-90
2021/10/03 06:28:37;;;;;;;5.40;4.90;;;15.70;99.90;;;;;;6244551;22;20446;-90
2021/10/03 06:31:12;;;;;;;5.30;4.80;;;15.70;99.90;;;;;;6244663;22;20789;-90
2021/10/03 06:33:49;;;;;;;7.70;4.87;;;15.80;99.90;;;;;;6244240;22;20166;-90
2021/10/03 06:36:15;;;;;;;4.63;4.23;;;15.90;99.90;;;;;;6253461;22;20395;-90
2021/10/03 06:38:40;;;;;;;5.03;3.90;;;16.10;99.90;;;;;;6244295;22;21047;-90
2021/10/03 06:41:06;;;;;;;3.90;3.60;;;16.20;99.90;;;;;;6243766;22;20488;-90
2021/10/03 06:43:41;;;;;;;5.17;4.33;;;16.30;99.90;;;;;;6244939;22;20166;-90
2021/10/03 06:46:08;;;;;;;4.20;3.80;;;16.50;99.90;;;;;;6245353;22;20392;-90
2021/10/03 06:48:36;;;;;;;4.07;3.77;;;16.70;99.90;;;;;;6269310;22;20443;-90
2021/10/03 06:51:02;;;;;;;3.90;3.60;;;16.90;99.90;;;;;;6244147;22;20397;-90
2021/10/03 06:53:28;;;;;;;3.57;3.27;;;17.10;99.90;;;;;;6244154;22;20397;-90
2021/10/03 06:55:54;;;;;;;3.67;3.37;;;17.30;99.90;;;;;;6243071;22;20173;-90
2021/10/03 06:58:20;;;;;;;2.97;2.77;;;17.50;99.90;;;;;;6244134;22;20162;-90
2021/10/03 07:00:46;;;;;;;3.50;3.20;;;17.70;99.90;;;;;;6218866;22;20182;-90
2021/10/03 07:03:11;;;;;;;3.60;3.30;;;17.80;99.90;;;;;;6243369;22;20458;-90
2021/10/03 07:05:37;;;;;;;3.23;3.00;;;17.90;99.90;;;;;;6243749;22;20159;-90
2021/10/03 07:08:05;;;;;;;4.13;3.50;;;18.00;99.90;;;;;;6243591;22;20243;-90
2021/10/03 07:10:31;;;;;;;4.30;3.80;;;18.10;99.90;;;;;;6244369;22;20255;-90
2021/10/03 07:12:57;;;;;;;4.63;4.33;;;18.00;99.90;;;;;;6243877;22;20381;-90
2021/10/03 07:15:26;;;;;;;3.60;3.30;;;17.90;99.90;;;;;;6243129;22;20389;-90
2021/10/03 07:17:54;;;;;;;3.37;3.07;;;17.90;99.90;;;;;;6243236;22;20385;-89
2021/10/03 07:20:19;;;;;;;3.73;3.43;;;17.90;99.90;;;;;;6244074;22;20481;-90
2021/10/03 07:22:45;;;;;;;3.83;3.53;;;17.90;99.90;;;;;;6243577;22;20166;-90
2021/10/03 07:25:17;;;;;;;3.83;3.40;;;17.80;99.90;;;;;;6243335;22;20204;-89
2021/10/03 07:27:43;;;;;;;3.00;2.80;;;18.00;99.90;;;;;;6243082;22;20178;-90
2021/10/03 07:30:09;;;;;;;4.10;3.53;;;17.90;99.90;;;;;;6243094;22;20719;-90
2021/10/03 07:32:35;;;;;;;5.90;3.77;;;17.90;99.90;;;;;;6243447;22;20804;-90
2021/10/03 07:35:01;;;;;;;3.73;3.30;;;17.90;99.90;;;;;;6242950;22;20770;-89
2021/10/03 07:37:26;;;;;;;4.13;3.83;;;17.70;99.90;;;;;;6243057;22;20241;-90
2021/10/03 07:39:52;;;;;;;3.63;3.33;;;17.50;99.90;;;;;;6243672;22;20169;-89
2021/10/03 07:42:18;;;;;;;3.57;3.30;;;17.60;99.90;;;;;;6243022;22;20245;-90
2021/10/03 07:44:43;;;;;;;4.80;3.77;;;17.60;99.90;;;;;;6243683;22;20166;-90
2021/10/03 07:47:09;;;;;;;3.67;3.37;;;17.60;99.90;;;;;;6242815;22;20241;-90
2021/10/03 07:49:35;;;;;;;4.53;3.60;;;17.60;99.90;;;;;;6243819;22;20190;-90
2021/10/03 07:52:00;;;;;;;4.13;3.30;;;17.70;99.90;;;;;;6243089;22;20466;-91
2021/10/03 07:54:26;;;;;;;2.97;2.77;;;17.90;99.90;;;;;;6242455;22;20194;-90
2021/10/03 07:56:52;;;;;;;3.30;3.00;;;18.00;99.90;;;;;;6243825;22;20245;-90
2021/10/03 07:59:18;;;;;;;3.57;3.27;;;18.20;99.70;;;;;;6232521;23;20605;-90
2021/10/03 08:01:43;;;;;;;3.33;2.97;;;18.40;99.10;;;;;;6214229;23;20186;-90
2021/10/03 08:04:09;;;;;;;3.00;2.80;;;18.50;98.90;;;;;;6213677;23;20167;-91
2021/10/03 08:06:34;;;;;;;3.93;2.70;;;18.60;98.50;;;;;;6220867;23;20606;-90
2021/10/03 08:09:00;;;;;;;3.27;2.97;;;18.70;98.30;;;;;;6212981;23;20698;-89
2021/10/03 08:11:27;;;;;;;3.00;2.60;;;18.80;98.40;;;;;;6213277;23;20167;-90
2021/10/03 08:13:53;;;;;;;3.00;2.80;;;18.80;97.80;;;;;;6212353;23;20201;-90
2021/10/03 08:16:19;;;;;;;3.00;2.70;;;18.80;97.90;;;;;;6212702;23;20390;-90
2021/10/03 08:18:46;;;;;;;3.00;2.73;;;18.80;98.40;;;;;;6212436;23;20931;-90
2021/10/03 08:21:32;;;;;;;3.73;3.23;;;18.80;99.90;;;;;;6212823;23;20193;-90
2021/10/03 08:24:01;;;;;;;4.70;3.60;;;18.80;99.90;;;;;;6211602;23;20398;-90
2021/10/03 08:26:26;;;;;;;3.77;2.93;;;18.70;99.90;;;;;;6212491;23;20485;-91
2021/10/03 08:28:52;;;;;;;3.10;2.90;;;18.60;99.90;;;;;;6212881;23;20659;-90
2021/10/03 08:31:18;;;;;;;3.30;3.10;;;18.60;99.90;;;;;;6211981;23;20166;-90
2021/10/03 08:33:44;;;;;;;3.57;3.27;;;18.60;99.90;;;;;;6229508;23;20245;-90
2021/10/03 08:36:09;;;;;;;3.20;2.93;;;18.70;99.90;;;;;;6212466;23;20624;-91
2021/10/03 08:38:41;;;;;;;3.00;2.50;;;18.90;99.90;;;;;;6213081;23;20776;-90
2021/10/03 08:41:06;;;;;;;3.23;3.03;;;19.10;99.90;;;;;;6211857;23;20169;-90
2021/10/03 08:43:32;;;;;;;3.17;2.87;;;19.50;99.90;;;;;;6208506;23;20794;-92
2021/10/03 08:45:59;;;;;;;3.93;3.40;;;19.60;99.10;;;;;;6211470;23;20549;-91
2021/10/03 08:48:26;;;;;;;3.40;3.10;;;19.70;98.50;;;;;;6238773;23;20791;-90
2021/10/03 08:50:52;;;;;;;3.60;3.30;;;19.70;97.80;;;;;;6209466;23;20390;-91
2021/10/03 08:53:18;;;;;;;3.00;2.80;;;19.90;97.30;;;;;;6211843;23;20397;-91
2021/10/03 08:55:44;;;;;;;3.47;2.90;;;20.10;97.40;;;;;;6211138;23;20170;-91
2021/10/03 08:58:11;;;;;;;3.20;2.90;;;20.20;97.30;;;;;;6211186;23;20167;-91
2021/10/03 09:00:48;;;;;;;3.80;3.50;;;20.30;96.10;;;;;;6239336;22;20412;-90
2021/10/03 09:03:17;;;;;;;3.90;2.97;;;20.40;96.00;;;;;;6242514;22;20405;-91
2021/10/03 09:05:50;;;;;;;5.10;4.60;;;20.40;96.30;;;;;;6242021;22;20435;-90
2021/10/03 09:08:21;;;;;;;7.00;5.70;;;20.40;96.00;;;;;;6241743;22;20432;-91
2021/10/03 09:11:04;;;;;;;4.13;3.73;;;20.40;96.20;;;;;;6268551;22;20744;-91
2021/10/03 09:14:08;;;;;;;3.50;3.23;;;20.30;97.10;;;;;;6261745;22;20400;-90
2021/10/03 09:16:35;;;;;;;3.90;3.60;;;20.20;96.80;;;;;;6220885;22;20404;-90
2021/10/03 09:19:13;;;;;;;6.17;5.13;;;20.30;96.50;;;;;;6242368;22;20384;-90
2021/10/03 09:21:43;;;;;;;3.23;3.03;;;20.40;96.80;;;;;;6269420;22;20767;-90
2021/10/03 09:24:12;;;;;;;3.30;3.00;;;20.30;96.20;;;;;;6242746;22;20488;-90
2021/10/03 09:26:50;;;;;;;3.63;3.43;;;20.40;94.60;;;;;;6270393;22;20465;-90
2021/10/03 09:29:30;;;;;;;3.27;1.90;;;20.50;95.10;;;;;;6242910;22;20447;-90
2021/10/03 09:32:08;;;;;;;3.20;2.90;;;20.50;94.20;;;;;;6240075;22;20392;-90
2021/10/03 09:34:51;;;;;;;2.53;2.33;;;20.50;94.10;;;;;;6244680;22;20408;-90
2021/10/03 09:37:29;;;;;;;2.80;2.60;;;20.50;93.90;;;;;;6245652;22;20391;-90
2021/10/03 09:40:06;;;;;;;2.70;2.50;;;20.50;94.20;;;;;;6241387;22;20424;-90
2021/10/03 09:42:33;;;;;;;2.60;2.40;;;20.50;94.60;;;;;;6241716;22;20395;-90
2021/10/03 09:45:10;;;;;;;2.23;2.13;;;20.50;94.60;;;;;;6242679;22;20902;-90
2021/10/03 09:47:37;;;;;;;3.37;3.03;;;20.50;94.00;;;;;;6241045;22;20393;-91
2021/10/03 09:50:18;;;;;;;3.63;3.33;;;20.70;93.70;;;;;;6243073;22;20424;-91
2021/10/03 09:52:45;;;;;;;2.50;2.20;;;20.70;94.10;;;;;;6242815;22;20400;-91
2021/10/03 09:55:14;;;;;;;3.10;2.80;;;20.80;94.00;;;;;;6218893;22;20389;-90
2021/10/03 09:57:42;;;;;;;2.40;2.30;;;20.90;93.90;;;;;;6243360;22;21943;-90
2021/10/03 10:00:08;;;;;;;2.80;2.60;;;21.00;93.90;;;;;;6228670;23;20899;-90
2021/10/03 10:02:34;;;;;;;2.57;2.37;;;21.20;93.60;;;;;;6213259;23;20416;-90
2021/10/03 10:05:00;;;;;;;3.10;2.90;;;21.20;93.10;;;;;;6212748;23;20385;-90
2021/10/03 10:07:26;;;;;;;3.50;3.30;;;21.20;94.70;;;;;;6213272;23;20744;-91
2021/10/03 10:09:52;;;;;;;3.50;3.20;;;21.10;98.80;;;;;;6213343;23;20170;-90
2021/10/03 10:12:34;;;;;;;4.47;3.97;;;21.00;99.20;;;;;;6213558;23;20166;-91
2021/10/03 10:15:10;;;;;;;4.50;4.20;;;21.00;98.30;;;;;;6213101;23;20240;-90
2021/10/03 10:17:42;;;;;;;3.80;3.40;;;21.20;96.50;;;;;;6213973;23;20739;-90
2021/10/03 10:20:30;;;;;;;4.13;3.73;;;21.60;95.10;;;;;;6214642;23;20441;-90
2021/10/03 10:22:57;;;;;;;6.80;6.10;;;21.90;99.00;;;;;;6209079;23;20481;-91
2021/10/03 10:25:45;;;;;;;4.77;4.37;;;22.10;99.90;;;;;;6213902;23;20421;-91
2021/10/03 10:28:17;;;;;;;5.00;3.90;;;22.30;95.60;;;;;;6193734;23;20425;-91
2021/10/03 10:31:13;;;;;;;3.97;3.67;;;22.50;95.50;;;;;;6213659;23;20410;-91
2021/10/03 10:33:53;;;;;;;3.53;3.23;;;22.70;96.70;;;;;;6212928;23;20894;-91
2021/10/03 10:36:29;;;;;;;3.20;3.00;;;22.70;95.00;;;;;;6213978;23;20425;-91
2021/10/03 10:39:07;;;;;;;3.20;2.90;;;22.90;92.60;;;;;;6213457;23;20405;-91
2021/10/03 10:41:41;;;;;;;2.73;2.53;;;22.90;91.70;;;;;;6213949;23;20863;-91
2021/10/03 10:44:26;;;;;;;2.30;2.10;;;22.80;91.70;;;;;;6213567;23;20384;-90
2021/10/03 10:46:57;;;;;;;2.50;2.40;;;22.70;91.10;;;;;;6214012;23;20402;-91
2021/10/03 10:49:35;;;;;;;2.60;2.40;;;22.70;91.70;;;;;;6213342;23;20765;-90
2021/10/03 10:52:19;;;;;;;2.67;2.47;;;22.90;91.90;;;;;;6213659;23;20484;-90
2021/10/03 10:55:06;;;;;;;2.53;2.30;;;23.10;92.80;;;;;;6213786;23;20401;-91
2021/10/03 10:57:52;;;;;;;4.37;2.70;;;23.10;90.30;;;;;;6213993;23;20474;-90
2021/10/03 11:00:23;;;;;;;2.80;2.60;;;23.10;90.70;;;;;;6214835;22;20786;-90
2021/10/03 11:03:02;;;;;;;4.20;3.80;;;23.10;90.50;;;;;;6244353;22;20385;-90
2021/10/03 11:05:37;;;;;;;3.13;2.80;;;23.20;91.30;;;;;;6247227;22;20794;-90
2021/10/03 11:08:12;;;;;;;2.83;2.63;;;23.20;90.40;;;;;;6245797;22;20432;-90
2021/10/03 11:10:56;;;;;;;3.23;2.93;;;23.20;91.00;;;;;;6243881;22;20604;-90
2021/10/03 11:13:43;;;;;;;2.80;2.60;;;23.20;90.70;;;;;;6243776;22;20415;-91
2021/10/03 11:16:43;;;;;;;2.60;2.40;;;23.10;90.40;;;;;;6242840;22;20891;-91
2021/10/03 11:19:21;;;;;;;2.47;2.37;;;23.10;90.80;;;;;;6220485;22;20407;-91
2021/10/03 11:21:49;;;;;;;2.53;2.33;;;22.90;90.50;;;;;;6244521;22;20399;-91
2021/10/03 11:24:46;;;;;;;2.63;2.43;;;22.90;90.60;;;;;;6243647;22;20392;-91
2021/10/03 11:27:14;;;;;;;2.63;2.43;;;22.70;90.40;;;;;;6243596;22;20402;-91
2021/10/03 11:29:46;;;;;;;2.97;2.77;;;22.50;91.00;;;;;;6243161;22;20440;-90
2021/10/03 11:32:13;;;;;;;2.33;2.03;;;22.40;92.10;;;;;;6243302;22;20718;-90
2021/10/03 11:34:46;;;;;;;2.30;2.20;;;22.20;91.70;;;;;;6243600;22;20396;-90
2021/10/03 11:37:16;;;;;;;3.53;2.70;;;22.00;90.80;;;;;;6243766;22;20392;-90
2021/10/03 11:39:58;;;;;;;2.43;2.23;;;22.00;90.70;;;;;;6243700;22;20921;-90
2021/10/03 11:42:39;;;;;;;2.90;2.70;;;21.90;90.70;;;;;;6243040;22;20397;-91
2021/10/03 11:45:10;;;;;;;2.33;2.23;;;22.00;91.20;;;;;;6243449;22;20401;-90
2021/10/03 11:48:03;;;;;;;2.20;2.10;;;22.20;91.30;;;;;;6243180;22;20416;-90
2021/10/03 11:50:44;;;;;;;5.87;2.40;;;22.30;92.30;;;;;;6243529;22;20415;-90
2021/10/03 11:53:24;;;;;;;2.37;2.27;;;22.40;92.00;;;;;;6243801;22;20393;-91
2021/10/03 11:56:05;;;;;;;3.27;3.07;;;22.40;93.20;;;;;;6243573;22;20399;-91
2021/10/03 11:58:36;;;;;;;3.10;2.90;;;22.40;94.90;;;;;;6242866;22;20432;-91
2021/10/03 12:01:02;;;;;;;2.40;2.30;;;22.40;91.60;;;;;;6216651;23;20428;-90
2021/10/03 12:03:32;;;;;;;2.80;2.60;;;22.40;91.40;;;;;;6213026;23;20398;-91
2021/10/03 12:06:17;;;;;;;3.20;3.00;;;22.40;92.90;;;;;;6212094;23;20159;-91
2021/10/03 12:08:43;;;;;;;3.30;3.00;;;22.30;98.60;;;;;;6212617;23;20441;-91
2021/10/03 12:11:09;;;;;;;4.37;2.70;;;22.10;99.90;;;;;;6211772;23;20424;-90
2021/10/03 12:13:35;;;;;;;3.03;2.80;;;22.00;99.90;;;;;;6212120;23;20864;-90
2021/10/03 12:16:06;;;;;;;2.80;2.60;;;21.90;99.90;;;;;;6212496;23;20170;-93
2021/10/03 12:18:42;;;;;;;3.07;2.80;;;21.90;99.90;;;;;;6212180;23;20935;-91
2021/10/03 12:21:11;;;;;;;3.20;3.00;;;22.10;99.90;;;;;;6212088;23;20495;-88
2021/10/03 12:23:41;;;;;;;3.33;3.13;;;22.10;99.60;;;;;;6213058;23;20412;-89
2021/10/03 12:26:29;;;;;;;4.53;3.00;;;22.30;99.80;;;;;;6212557;23;20770;-91
2021/10/03 12:29:07;;;;;;;3.10;2.87;;;22.50;99.90;;;;;;6212925;23;20749;-92
2021/10/03 12:31:58;;;;;;;2.97;2.73;;;22.80;99.90;;;;;;6213100;23;20462;-90
2021/10/03 12:34:23;;;;;;;3.67;3.37;;;22.80;99.90;;;;;;6214916;23;20728;-90
2021/10/03 12:37:01;;;;;;;3.03;2.83;;;22.60;99.90;;;;;;6222653;23;20390;-91
2021/10/03 12:39:29;;;;;;;4.37;3.27;;;22.50;99.90;;;;;;6212600;23;20272;-90
2021/10/03 12:41:57;;;;;;;3.63;3.33;;;22.40;99.10;;;;;;6213115;23;20493;-90
2021/10/03 12:44:25;;;;;;;3.67;3.37;;;22.50;98.80;;;;;;6211895;23;20493;-89
2021/10/03 12:46:52;;;;;;;3.07;2.87;;;22.50;98.50;;;;;;6212260;23;20396;-89
2021/10/03 12:49:18;;;;;;;7.20;3.23;;;22.70;98.40;;;;;;6212514;23;20445;-89
2021/10/03 12:51:44;;;;;;;4.13;3.83;;;22.90;97.40;;;;;;6212975;23;20386;-89
2021/10/03 12:54:10;;;;;;;3.63;3.33;;;22.90;97.10;;;;;;6211633;23;20722;-89
2021/10/03 12:56:36;;;;;;;5.53;4.27;;;22.80;96.70;;;;;;6212293;23;20163;-87